sensor_id;sensor_type;location;lat;lon;timestamp;P1;durP1;ratioP1;P2;durP2;ratioP2
9970;SDS011;5026;51.494;11.974;2022-08-19T00:00:28;21.98;;;18.02;;
9970;SDS011;5026;51.494;11.974;2022-08-19T00:02:56;27.45;;;19.10;;
9970;SDS011;5026;51.494;11.974;2022-08-19T00:05:24;26.10;;;19.25;;
9970;SDS011;5026;51.494;11.974;2022-08-19T00:07:51;26.25;;;19.17;;
9970;SDS011;5026;51.494;11.974;2022-08-19T00:10:19;26.40;;;18.65;;
9970;SDS011;5026;51.494;11.974;2022-08-19T00:12:46;26.85;;;17.95;;
9970;SDS011;5026;51.494;11.974;2022-08-19T00:15:14;27.15;;;18.27;;
9970;SDS011;5026;51.494;11.974;2022-08-19T00:17:43;25.35;;;18.92;;
9970;SDS011;5026;51.494;11.974;2022-08-19T00:20:12;24.15;;;18.40;;
9970;SDS011;5026;51.494;11.974;2022-08-19T00:22:43;23.83;;;20.48;;
9970;SDS011;5026;51.494;11.974;2022-08-19T00:25:10;30.02;;;19.50;;
9970;SDS011;5026;51.494;11.974;2022-08-19T00:27:37;24.23;;;19.13;;
9970;SDS011;5026;51.494;11.974;2022-08-19T00:30:05;25.92;;;19.45;;
9970;SDS011;5026;51.494;11.974;2022-08-19T00:32:35;27.30;;;20.83;;
9970;SDS011;5026;51.494;11.974;2022-08-19T00:35:02;28.80;;;20.63;;
9970;SDS011;5026;51.494;11.974;2022-08-19T00:37:30;26.95;;;19.98;;
9970;SDS011;5026;51.494;11.974;2022-08-19T00:39:59;26.27;;;19.85;;
9970;SDS011;5026;51.494;11.974;2022-08-19T00:42:27;34.22;;;22.25;;
9970;SDS011;5026;51.494;11.974;2022-08-19T00:44:54;28.88;;;20.48;;
9970;SDS011;5026;51.494;11.974;2022-08-19T00:47:21;30.10;;;21.92;;
9970;SDS011;5026;51.494;11.974;2022-08-19T00:49:49;26.70;;;19.63;;
9970;SDS011;5026;51.494;11.974;2022-08-19T00:52:21;29.45;;;21.83;;
9970;SDS011;5026;51.494;11.974;2022-08-19T00:54:50;30.08;;;21.30;;
9970;SDS011;5026;51.494;11.974;2022-08-19T00:57:20;28.20;;;20.90;;
9970;SDS011;5026;51.494;11.974;2022-08-19T00:59:52;30.23;;;20.35;;
9970;SDS011;5026;51.494;11.974;2022-08-19T01:02:21;28.40;;;21.38;;
9970;SDS011;5026;51.494;11.974;2022-08-19T01:04:50;30.33;;;21.33;;
9970;SDS011;5026;51.494;11.974;2022-08-19T01:07:16;28.15;;;20.90;;
9970;SDS011;5026;51.494;11.974;2022-08-19T01:09:44;27.35;;;20.98;;
9970;SDS011;5026;51.494;11.974;2022-08-19T01:12:11;30.27;;;21.63;;
9970;SDS011;5026;51.494;11.974;2022-08-19T01:14:39;27.85;;;20.92;;
9970;SDS011;5026;51.494;11.974;2022-08-19T01:17:07;28.33;;;20.67;;
9970;SDS011;5026;51.494;11.974;2022-08-19T01:19:35;30.27;;;22.45;;
9970;SDS011;5026;51.494;11.974;2022-08-19T01:22:06;30.17;;;21.58;;
9970;SDS011;5026;51.494;11.974;2022-08-19T01:24:39;37.80;;;23.58;;
9970;SDS011;5026;51.494;11.974;2022-08-19T01:27:07;28.55;;;21.65;;
9970;SDS011;5026;51.494;11.974;2022-08-19T01:29:36;34.15;;;22.58;;
9970;SDS011;5026;51.494;11.974;2022-08-19T01:32:04;29.30;;;21.85;;
9970;SDS011;5026;51.494;11.974;2022-08-19T01:34:31;28.20;;;21.27;;
9970;SDS011;5026;51.494;11.974;2022-08-19T01:36:59;31.50;;;23.25;;
9970;SDS011;5026;51.494;11.974;2022-08-19T01:39:27;28.15;;;22.45;;
9970;SDS011;5026;51.494;11.974;2022-08-19T01:41:55;28.23;;;21.05;;
9970;SDS011;5026;51.494;11.974;2022-08-19T01:44:22;30.35;;;21.52;;
9970;SDS011;5026;51.494;11.974;2022-08-19T01:46:50;32.60;;;21.90;;
9970;SDS011;5026;51.494;11.974;2022-08-19T01:49:19;31.52;;;23.60;;
9970;SDS011;5026;51.494;11.974;2022-08-19T01:51:47;30.80;;;23.63;;
9970;SDS011;5026;51.494;11.974;2022-08-19T01:54:16;33.15;;;23.77;;
9970;SDS011;5026;51.494;11.974;2022-08-19T01:56:43;32.97;;;25.48;;
9970;SDS011;5026;51.494;11.974;2022-08-19T01:59:13;31.27;;;23.45;;
9970;SDS011;5026;51.494;11.974;2022-08-19T02:01:42;35.63;;;25.25;;
9970;SDS011;5026;51.494;11.974;2022-08-19T02:04:09;36.28;;;24.83;;
9970;SDS011;5026;51.494;11.974;2022-08-19T02:06:36;35.03;;;26.10;;
9970;SDS011;5026;51.494;11.974;2022-08-19T02:09:07;38.47;;;28.10;;
9970;SDS011;5026;51.494;11.974;2022-08-19T02:11:35;35.38;;;25.50;;
9970;SDS011;5026;51.494;11.974;2022-08-19T02:14:04;37.80;;;26.83;;
9970;SDS011;5026;51.494;11.974;2022-08-19T02:16:34;36.60;;;26.25;;
9970;SDS011;5026;51.494;11.974;2022-08-19T02:19:01;36.60;;;26.73;;
9970;SDS011;5026;51.494;11.974;2022-08-19T02:21:29;37.78;;;27.10;;
9970;SDS011;5026;51.494;11.974;2022-08-19T02:23:57;38.67;;;27.88;;
9970;SDS011;5026;51.494;11.974;2022-08-19T02:26:24;42.03;;;27.48;;
9970;SDS011;5026;51.494;11.974;2022-08-19T02:28:52;36.97;;;28.42;;
9970;SDS011;5026;51.494;11.974;2022-08-19T02:31:21;41.17;;;29.20;;
9970;SDS011;5026;51.494;11.974;2022-08-19T02:33:50;39.00;;;28.00;;
9970;SDS011;5026;51.494;11.974;2022-08-19T02:36:18;43.28;;;28.38;;
9970;SDS011;5026;51.494;11.974;2022-08-19T02:38:45;39.03;;;29.50;;
9970;SDS011;5026;51.494;11.974;2022-08-19T02:41:14;43.42;;;29.38;;
9970;SDS011;5026;51.494;11.974;2022-08-19T02:43:43;38.35;;;26.33;;
9970;SDS011;5026;51.494;11.974;2022-08-19T02:46:11;39.25;;;28.73;;
9970;SDS011;5026;51.494;11.974;2022-08-19T02:48:39;42.72;;;28.13;;
9970;SDS011;5026;51.494;11.974;2022-08-19T02:51:07;39.47;;;28.73;;
9970;SDS011;5026;51.494;11.974;2022-08-19T02:53:34;40.80;;;30.45;;
9970;SDS011;5026;51.494;11.974;2022-08-19T02:56:05;39.58;;;29.38;;
9970;SDS011;5026;51.494;11.974;2022-08-19T02:58:32;42.97;;;29.42;;
9970;SDS011;5026;51.494;11.974;2022-08-19T03:00:59;41.00;;;29.52;;
9970;SDS011;5026;51.494;11.974;2022-08-19T03:03:26;38.75;;;28.88;;
9970;SDS011;5026;51.494;11.974;2022-08-19T03:06:09;44.42;;;31.02;;
9970;SDS011;5026;51.494;11.974;2022-08-19T03:08:38;45.75;;;31.75;;
9970;SDS011;5026;51.494;11.974;2022-08-19T03:11:06;40.53;;;30.38;;
9970;SDS011;5026;51.494;11.974;2022-08-19T03:13:38;43.88;;;31.50;;
9970;SDS011;5026;51.494;11.974;2022-08-19T03:16:05;46.05;;;31.08;;
9970;SDS011;5026;51.494;11.974;2022-08-19T03:18:32;44.75;;;30.98;;
9970;SDS011;5026;51.494;11.974;2022-08-19T03:20:58;38.80;;;30.08;;
9970;SDS011;5026;51.494;11.974;2022-08-19T03:23:27;47.05;;;32.03;;
9970;SDS011;5026;51.494;11.974;2022-08-19T03:25:54;46.75;;;31.58;;
9970;SDS011;5026;51.494;11.974;2022-08-19T03:28:21;43.05;;;31.25;;
9970;SDS011;5026;51.494;11.974;2022-08-19T03:30:55;42.60;;;31.88;;
9970;SDS011;5026;51.494;11.974;2022-08-19T03:33:24;46.42;;;33.17;;
9970;SDS011;5026;51.494;11.974;2022-08-19T03:36:01;46.45;;;33.60;;
9970;SDS011;5026;51.494;11.974;2022-08-19T03:38:31;44.63;;;33.22;;
9970;SDS011;5026;51.494;11.974;2022-08-19T03:41:01;49.95;;;35.03;;
9970;SDS011;5026;51.494;11.974;2022-08-19T03:43:31;49.25;;;34.85;;
9970;SDS011;5026;51.494;11.974;2022-08-19T03:46:02;44.70;;;32.50;;
9970;SDS011;5026;51.494;11.974;2022-08-19T03:48:30;49.53;;;33.88;;
9970;SDS011;5026;51.494;11.974;2022-08-19T03:50:58;46.80;;;33.67;;
9970;SDS011;5026;51.494;11.974;2022-08-19T03:53:25;48.33;;;34.03;;
9970;SDS011;5026;51.494;11.974;2022-08-19T03:55:54;45.65;;;33.22;;
9970;SDS011;5026;51.494;11.974;2022-08-19T03:58:22;46.20;;;33.35;;
9970;SDS011;5026;51.494;11.974;2022-08-19T04:00:49;50.33;;;35.15;;
9970;SDS011;5026;51.494;11.974;2022-08-19T04:03:16;48.63;;;32.17;;
9970;SDS011;5026;51.494;11.974;2022-08-19T04:05:44;47.50;;;31.73;;
9970;SDS011;5026;51.494;11.974;2022-08-19T04:08:12;40.15;;;29.83;;
9970;SDS011;5026;51.494;11.974;2022-08-19T04:10:40;43.30;;;31.85;;
9970;SDS011;5026;51.494;11.974;2022-08-19T04:13:08;46.50;;;32.88;;
9970;SDS011;5026;51.494;11.974;2022-08-19T04:15:38;41.17;;;31.05;;
9970;SDS011;5026;51.494;11.974;2022-08-19T04:18:07;45.88;;;33.50;;
9970;SDS011;5026;51.494;11.974;2022-08-19T04:20:38;43.50;;;31.88;;
9970;SDS011;5026;51.494;11.974;2022-08-19T04:23:06;47.88;;;33.67;;
9970;SDS011;5026;51.494;11.974;2022-08-19T04:25:35;43.88;;;31.48;;
9970;SDS011;5026;51.494;11.974;2022-08-19T04:28:03;43.38;;;30.90;;
9970;SDS011;5026;51.494;11.974;2022-08-19T04:30:36;38.97;;;30.95;;
9970;SDS011;5026;51.494;11.974;2022-08-19T04:33:05;48.42;;;33.03;;
9970;SDS011;5026;51.494;11.974;2022-08-19T04:35:34;41.63;;;31.58;;
9970;SDS011;5026;51.494;11.974;2022-08-19T04:38:02;42.72;;;30.77;;
9970;SDS011;5026;51.494;11.974;2022-08-19T04:40:29;42.38;;;31.52;;
9970;SDS011;5026;51.494;11.974;2022-08-19T04:43:14;42.38;;;31.88;;
9970;SDS011;5026;51.494;11.974;2022-08-19T04:45:42;42.15;;;31.33;;
9970;SDS011;5026;51.494;11.974;2022-08-19T04:48:09;41.40;;;29.55;;
9970;SDS011;5026;51.494;11.974;2022-08-19T04:50:39;42.00;;;30.02;;
9970;SDS011;5026;51.494;11.974;2022-08-19T04:53:07;42.67;;;30.23;;
9970;SDS011;5026;51.494;11.974;2022-08-19T04:55:37;40.33;;;30.13;;
9970;SDS011;5026;51.494;11.974;2022-08-19T04:58:05;41.95;;;28.80;;
9970;SDS011;5026;51.494;11.974;2022-08-19T05:00:32;37.42;;;28.63;;
9970;SDS011;5026;51.494;11.974;2022-08-19T05:03:01;41.55;;;28.08;;
9970;SDS011;5026;51.494;11.974;2022-08-19T05:05:28;39.78;;;28.63;;
9970;SDS011;5026;51.494;11.974;2022-08-19T05:07:56;36.88;;;26.85;;
9970;SDS011;5026;51.494;11.974;2022-08-19T05:10:23;37.22;;;26.63;;
9970;SDS011;5026;51.494;11.974;2022-08-19T05:12:51;37.70;;;27.40;;
9970;SDS011;5026;51.494;11.974;2022-08-19T05:15:18;33.05;;;26.42;;
9970;SDS011;5026;51.494;11.974;2022-08-19T05:17:45;34.05;;;25.90;;
9970;SDS011;5026;51.494;11.974;2022-08-19T05:20:28;34.33;;;24.25;;
9970;SDS011;5026;51.494;11.974;2022-08-19T05:23:12;37.10;;;26.35;;
9970;SDS011;5026;51.494;11.974;2022-08-19T05:25:40;35.40;;;25.90;;
9970;SDS011;5026;51.494;11.974;2022-08-19T05:28:08;35.30;;;26.42;;
9970;SDS011;5026;51.494;11.974;2022-08-19T05:30:35;33.47;;;24.45;;
9970;SDS011;5026;51.494;11.974;2022-08-19T05:33:01;38.10;;;24.70;;
9970;SDS011;5026;51.494;11.974;2022-08-19T05:35:30;32.40;;;23.80;;
9970;SDS011;5026;51.494;11.974;2022-08-19T05:37:57;33.13;;;25.45;;
9970;SDS011;5026;51.494;11.974;2022-08-19T05:40:23;33.58;;;25.20;;
9970;SDS011;5026;51.494;11.974;2022-08-19T05:42:50;34.90;;;25.20;;
9970;SDS011;5026;51.494;11.974;2022-08-19T05:45:18;35.60;;;25.35;;
9970;SDS011;5026;51.494;11.974;2022-08-19T05:47:46;36.47;;;26.35;;
9970;SDS011;5026;51.494;11.974;2022-08-19T05:50:13;32.65;;;23.98;;
9970;SDS011;5026;51.494;11.974;2022-08-19T05:52:43;31.25;;;22.83;;
9970;SDS011;5026;51.494;11.974;2022-08-19T05:55:11;31.55;;;22.33;;
9970;SDS011;5026;51.494;11.974;2022-08-19T05:57:38;26.38;;;21.10;;
9970;SDS011;5026;51.494;11.974;2022-08-19T06:00:06;29.08;;;20.85;;
9970;SDS011;5026;51.494;11.974;2022-08-19T06:02:35;30.05;;;20.83;;
9970;SDS011;5026;51.494;11.974;2022-08-19T06:05:02;27.75;;;19.55;;
9970;SDS011;5026;51.494;11.974;2022-08-19T06:07:31;28.13;;;19.65;;
9970;SDS011;5026;51.494;11.974;2022-08-19T06:09:59;26.55;;;18.73;;
9970;SDS011;5026;51.494;11.974;2022-08-19T06:12:26;23.92;;;18.92;;
9970;SDS011;5026;51.494;11.974;2022-08-19T06:14:55;24.52;;;18.92;;
9970;SDS011;5026;51.494;11.974;2022-08-19T06:17:22;27.05;;;17.92;;
9970;SDS011;5026;51.494;11.974;2022-08-19T06:19:50;27.00;;;16.60;;
9970;SDS011;5026;51.494;11.974;2022-08-19T06:22:17;28.55;;;16.90;;
9970;SDS011;5026;51.494;11.974;2022-08-19T06:24:44;25.27;;;16.85;;
9970;SDS011;5026;51.494;11.974;2022-08-19T06:27:12;21.23;;;15.57;;
9970;SDS011;5026;51.494;11.974;2022-08-19T06:29:40;21.85;;;15.85;;
9970;SDS011;5026;51.494;11.974;2022-08-19T06:32:08;22.02;;;16.10;;
9970;SDS011;5026;51.494;11.974;2022-08-19T06:34:36;18.73;;;15.73;;
9970;SDS011;5026;51.494;11.974;2022-08-19T06:37:04;20.48;;;16.02;;
9970;SDS011;5026;51.494;11.974;2022-08-19T06:39:35;23.45;;;14.57;;
9970;SDS011;5026;51.494;11.974;2022-08-19T06:42:03;20.00;;;15.07;;
9970;SDS011;5026;51.494;11.974;2022-08-19T06:44:35;17.73;;;14.10;;
9970;SDS011;5026;51.494;11.974;2022-08-19T06:47:02;18.65;;;13.60;;
9970;SDS011;5026;51.494;11.974;2022-08-19T06:49:31;19.40;;;13.48;;
9970;SDS011;5026;51.494;11.974;2022-08-19T06:51:58;16.40;;;12.82;;
9970;SDS011;5026;51.494;11.974;2022-08-19T06:54:26;18.75;;;13.45;;
9970;SDS011;5026;51.494;11.974;2022-08-19T06:56:54;19.20;;;13.43;;
9970;SDS011;5026;51.494;11.974;2022-08-19T06:59:22;16.98;;;12.50;;
9970;SDS011;5026;51.494;11.974;2022-08-19T07:01:54;17.77;;;13.07;;
9970;SDS011;5026;51.494;11.974;2022-08-19T07:04:24;18.52;;;13.05;;
9970;SDS011;5026;51.494;11.974;2022-08-19T07:06:56;19.17;;;13.30;;
9970;SDS011;5026;51.494;11.974;2022-08-19T07:09:25;21.92;;;12.32;;
9970;SDS011;5026;51.494;11.974;2022-08-19T07:11:53;16.95;;;12.63;;
9970;SDS011;5026;51.494;11.974;2022-08-19T07:14:21;16.80;;;13.15;;
9970;SDS011;5026;51.494;11.974;2022-08-19T07:16:50;22.65;;;13.43;;
9970;SDS011;5026;51.494;11.974;2022-08-19T07:19:21;19.45;;;14.40;;
9970;SDS011;5026;51.494;11.974;2022-08-19T07:21:51;18.13;;;14.35;;
9970;SDS011;5026;51.494;11.974;2022-08-19T07:24:18;18.13;;;14.07;;
9970;SDS011;5026;51.494;11.974;2022-08-19T07:26:48;19.45;;;14.27;;
9970;SDS011;5026;51.494;11.974;2022-08-19T07:29:16;16.75;;;13.45;;
9970;SDS011;5026;51.494;11.974;2022-08-19T07:31:43;21.77;;;13.27;;
9970;SDS011;5026;51.494;11.974;2022-08-19T07:34:10;17.58;;;13.52;;
9970;SDS011;5026;51.494;11.974;2022-08-19T07:36:42;20.77;;;13.07;;
9970;SDS011;5026;51.494;11.974;2022-08-19T07:39:11;16.00;;;12.85;;
9970;SDS011;5026;51.494;11.974;2022-08-19T07:41:39;21.80;;;14.20;;
9970;SDS011;5026;51.494;11.974;2022-08-19T07:44:06;16.80;;;12.77;;
9970;SDS011;5026;51.494;11.974;2022-08-19T07:46:35;22.75;;;14.05;;
9970;SDS011;5026;51.494;11.974;2022-08-19T07:49:05;16.15;;;12.85;;
9970;SDS011;5026;51.494;11.974;2022-08-19T07:51:33;17.65;;;13.77;;
9970;SDS011;5026;51.494;11.974;2022-08-19T07:54:01;17.60;;;12.70;;
9970;SDS011;5026;51.494;11.974;2022-08-19T07:56:29;16.13;;;11.60;;
9970;SDS011;5026;51.494;11.974;2022-08-19T07:58:55;13.98;;;11.45;;
9970;SDS011;5026;51.494;11.974;2022-08-19T08:01:24;16.15;;;11.73;;
9970;SDS011;5026;51.494;11.974;2022-08-19T08:03:53;18.05;;;12.32;;
9970;SDS011;5026;51.494;11.974;2022-08-19T08:06:39;16.95;;;12.25;;
9970;SDS011;5026;51.494;11.974;2022-08-19T08:09:27;19.48;;;13.52;;
9970;SDS011;5026;51.494;11.974;2022-08-19T08:11:56;17.05;;;11.88;;
9970;SDS011;5026;51.494;11.974;2022-08-19T08:14:27;16.17;;;11.77;;
9970;SDS011;5026;51.494;11.974;2022-08-19T08:16:57;17.50;;;12.60;;
9970;SDS011;5026;51.494;11.974;2022-08-19T08:19:25;15.77;;;12.52;;
9970;SDS011;5026;51.494;11.974;2022-08-19T08:21:53;17.42;;;12.43;;
9970;SDS011;5026;51.494;11.974;2022-08-19T08:24:21;18.63;;;11.68;;
9970;SDS011;5026;51.494;11.974;2022-08-19T08:26:50;16.77;;;11.93;;
9970;SDS011;5026;51.494;11.974;2022-08-19T08:29:17;17.10;;;12.13;;
9970;SDS011;5026;51.494;11.974;2022-08-19T08:31:44;19.02;;;11.32;;
9970;SDS011;5026;51.494;11.974;2022-08-19T08:34:13;16.02;;;10.63;;
9970;SDS011;5026;51.494;11.974;2022-08-19T08:36:41;18.45;;;12.00;;
9970;SDS011;5026;51.494;11.974;2022-08-19T08:39:10;16.75;;;11.52;;
9970;SDS011;5026;51.494;11.974;2022-08-19T08:41:40;19.42;;;11.35;;
9970;SDS011;5026;51.494;11.974;2022-08-19T08:44:16;16.38;;;11.65;;
9970;SDS011;5026;51.494;11.974;2022-08-19T08:46:48;15.70;;;10.80;;
9970;SDS011;5026;51.494;11.974;2022-08-19T08:49:29;12.85;;;10.73;;
9970;SDS011;5026;51.494;11.974;2022-08-19T08:52:07;15.50;;;10.40;;
9970;SDS011;5026;51.494;11.974;2022-08-19T08:54:38;14.95;;;10.70;;
9970;SDS011;5026;51.494;11.974;2022-08-19T08:57:09;13.13;;;10.75;;
9970;SDS011;5026;51.494;11.974;2022-08-19T08:59:41;13.18;;;10.75;;
9970;SDS011;5026;51.494;11.974;2022-08-19T09:02:15;12.60;;;9.77;;
9970;SDS011;5026;51.494;11.974;2022-08-19T09:04:43;13.45;;;9.45;;
9970;SDS011;5026;51.494;11.974;2022-08-19T09:10:05;13.10;;;10.02;;
9970;SDS011;5026;51.494;11.974;2022-08-19T09:12:38;14.05;;;10.25;;
9970;SDS011;5026;51.494;11.974;2022-08-19T09:15:21;15.07;;;10.10;;
9970;SDS011;5026;51.494;11.974;2022-08-19T09:17:53;14.13;;;9.65;;
9970;SDS011;5026;51.494;11.974;2022-08-19T09:20:20;14.02;;;9.32;;
9970;SDS011;5026;51.494;11.974;2022-08-19T09:22:49;13.07;;;9.95;;
9970;SDS011;5026;51.494;11.974;2022-08-19T09:25:17;11.07;;;9.10;;
9970;SDS011;5026;51.494;11.974;2022-08-19T09:27:47;11.43;;;9.65;;
9970;SDS011;5026;51.494;11.974;2022-08-19T09:30:15;12.02;;;9.45;;
9970;SDS011;5026;51.494;11.974;2022-08-19T09:32:45;10.52;;;9.13;;
9970;SDS011;5026;51.494;11.974;2022-08-19T09:35:13;12.93;;;10.05;;
9970;SDS011;5026;51.494;11.974;2022-08-19T09:37:40;9.98;;;8.98;;
9970;SDS011;5026;51.494;11.974;2022-08-19T09:40:09;11.15;;;8.65;;
9970;SDS011;5026;51.494;11.974;2022-08-19T09:42:37;13.80;;;9.20;;
9970;SDS011;5026;51.494;11.974;2022-08-19T09:45:04;12.35;;;9.32;;
9970;SDS011;5026;51.494;11.974;2022-08-19T09:47:32;11.85;;;8.90;;
9970;SDS011;5026;51.494;11.974;2022-08-19T09:50:05;10.55;;;8.57;;
9970;SDS011;5026;51.494;11.974;2022-08-19T09:52:32;13.70;;;9.35;;
9970;SDS011;5026;51.494;11.974;2022-08-19T09:55:01;13.60;;;9.63;;
9970;SDS011;5026;51.494;11.974;2022-08-19T09:57:29;12.18;;;8.20;;
9970;SDS011;5026;51.494;11.974;2022-08-19T09:59:56;12.07;;;8.57;;
9970;SDS011;5026;51.494;11.974;2022-08-19T10:02:23;11.40;;;8.77;;
9970;SDS011;5026;51.494;11.974;2022-08-19T10:04:50;13.38;;;8.43;;
9970;SDS011;5026;51.494;11.974;2022-08-19T10:07:37;9.65;;;7.97;;
9970;SDS011;5026;51.494;11.974;2022-08-19T10:10:04;9.32;;;7.38;;
9970;SDS011;5026;51.494;11.974;2022-08-19T10:12:32;9.98;;;7.85;;
9970;SDS011;5026;51.494;11.974;2022-08-19T10:15:00;11.57;;;8.13;;
9970;SDS011;5026;51.494;11.974;2022-08-19T10:17:27;12.73;;;7.97;;
9970;SDS011;5026;51.494;11.974;2022-08-19T10:19:58;12.73;;;8.05;;
9970;SDS011;5026;51.494;11.974;2022-08-19T10:22:25;10.05;;;8.35;;
9970;SDS011;5026;51.494;11.974;2022-08-19T10:24:53;13.25;;;8.07;;
9970;SDS011;5026;51.494;11.974;2022-08-19T10:27:21;9.18;;;7.45;;
9970;SDS011;5026;51.494;11.974;2022-08-19T10:29:49;10.05;;;7.88;;
9970;SDS011;5026;51.494;11.974;2022-08-19T10:32:15;11.98;;;8.68;;
9970;SDS011;5026;51.494;11.974;2022-08-19T10:34:42;10.85;;;8.38;;
9970;SDS011;5026;51.494;11.974;2022-08-19T10:37:09;11.00;;;9.18;;
9970;SDS011;5026;51.494;11.974;2022-08-19T10:39:36;10.40;;;8.32;;
9970;SDS011;5026;51.494;11.974;2022-08-19T10:42:06;11.18;;;8.40;;
9970;SDS011;5026;51.494;11.974;2022-08-19T10:44:35;10.52;;;8.82;;
9970;SDS011;5026;51.494;11.974;2022-08-19T10:47:02;9.90;;;8.65;;
9970;SDS011;5026;51.494;11.974;2022-08-19T10:49:30;8.70;;;7.75;;
9970;SDS011;5026;51.494;11.974;2022-08-19T10:52:17;10.43;;;7.82;;
9970;SDS011;5026;51.494;11.974;2022-08-19T10:54:58;10.57;;;7.85;;
9970;SDS011;5026;51.494;11.974;2022-08-19T10:57:55;9.40;;;7.90;;
9970;SDS011;5026;51.494;11.974;2022-08-19T11:00:22;9.48;;;7.50;;
9970;SDS011;5026;51.494;11.974;2022-08-19T11:02:50;9.60;;;6.90;;
9970;SDS011;5026;51.494;11.974;2022-08-19T11:05:18;8.48;;;7.63;;
9970;SDS011;5026;51.494;11.974;2022-08-19T11:07:47;8.77;;;6.95;;
9970;SDS011;5026;51.494;11.974;2022-08-19T11:10:15;9.95;;;7.22;;
9970;SDS011;5026;51.494;11.974;2022-08-19T11:12:44;9.82;;;7.80;;
9970;SDS011;5026;51.494;11.974;2022-08-19T11:15:14;9.43;;;8.48;;
9970;SDS011;5026;51.494;11.974;2022-08-19T11:17:41;9.50;;;7.25;;
9970;SDS011;5026;51.494;11.974;2022-08-19T11:20:09;12.02;;;7.78;;
9970;SDS011;5026;51.494;11.974;2022-08-19T11:22:37;10.80;;;9.10;;
9970;SDS011;5026;51.494;11.974;2022-08-19T11:25:05;9.88;;;8.10;;
9970;SDS011;5026;51.494;11.974;2022-08-19T11:27:33;9.88;;;8.60;;
9970;SDS011;5026;51.494;11.974;2022-08-19T11:30:05;9.20;;;8.07;;
9970;SDS011;5026;51.494;11.974;2022-08-19T11:32:34;10.05;;;9.05;;
9970;SDS011;5026;51.494;11.974;2022-08-19T11:35:01;8.35;;;7.47;;
9970;SDS011;5026;51.494;11.974;2022-08-19T11:37:28;9.63;;;8.05;;
9970;SDS011;5026;51.494;11.974;2022-08-19T11:39:55;9.80;;;8.80;;
9970;SDS011;5026;51.494;11.974;2022-08-19T11:42:22;10.93;;;8.63;;
9970;SDS011;5026;51.494;11.974;2022-08-19T11:45:07;10.45;;;8.63;;
9970;SDS011;5026;51.494;11.974;2022-08-19T11:47:36;10.43;;;7.75;;
9970;SDS011;5026;51.494;11.974;2022-08-19T11:50:04;9.52;;;7.63;;
9970;SDS011;5026;51.494;11.974;2022-08-19T11:52:31;9.15;;;8.30;;
9970;SDS011;5026;51.494;11.974;2022-08-19T11:54:58;9.38;;;8.20;;
9970;SDS011;5026;51.494;11.974;2022-08-19T11:57:25;10.38;;;8.02;;
9970;SDS011;5026;51.494;11.974;2022-08-19T11:59:52;11.88;;;8.20;;
9970;SDS011;5026;51.494;11.974;2022-08-19T12:02:19;8.88;;;7.97;;
9970;SDS011;5026;51.494;11.974;2022-08-19T12:04:48;8.93;;;7.88;;
9970;SDS011;5026;51.494;11.974;2022-08-19T12:07:15;11.20;;;8.07;;
9970;SDS011;5026;51.494;11.974;2022-08-19T12:09:42;10.00;;;8.07;;
9970;SDS011;5026;51.494;11.974;2022-08-19T12:12:09;9.00;;;8.00;;
9970;SDS011;5026;51.494;11.974;2022-08-19T12:14:36;8.93;;;7.78;;
9970;SDS011;5026;51.494;11.974;2022-08-19T12:17:03;10.25;;;8.45;;
9970;SDS011;5026;51.494;11.974;2022-08-19T12:19:32;13.65;;;9.40;;
9970;SDS011;5026;51.494;11.974;2022-08-19T12:22:01;9.07;;;8.00;;
9970;SDS011;5026;51.494;11.974;2022-08-19T12:24:30;10.45;;;8.60;;
9970;SDS011;5026;51.494;11.974;2022-08-19T12:26:58;8.68;;;7.78;;
9970;SDS011;5026;51.494;11.974;2022-08-19T12:29:26;10.57;;;8.98;;
9970;SDS011;5026;51.494;11.974;2022-08-19T12:31:54;11.05;;;9.02;;
9970;SDS011;5026;51.494;11.974;2022-08-19T12:34:26;11.30;;;8.45;;
9970;SDS011;5026;51.494;11.974;2022-08-19T12:36:55;11.80;;;8.38;;
9970;SDS011;5026;51.494;11.974;2022-08-19T12:39:24;10.70;;;7.35;;
9970;SDS011;5026;51.494;11.974;2022-08-19T12:41:51;9.70;;;7.43;;
9970;SDS011;5026;51.494;11.974;2022-08-19T12:44:19;9.75;;;7.30;;
9970;SDS011;5026;51.494;11.974;2022-08-19T12:46:46;8.20;;;6.93;;
9970;SDS011;5026;51.494;11.974;2022-08-19T12:49:14;9.27;;;8.27;;
9970;SDS011;5026;51.494;11.974;2022-08-19T12:51:41;11.30;;;7.25;;
9970;SDS011;5026;51.494;11.974;2022-08-19T12:54:08;8.15;;;6.90;;
9970;SDS011;5026;51.494;11.974;2022-08-19T12:56:37;10.48;;;7.38;;
9970;SDS011;5026;51.494;11.974;2022-08-19T12:59:04;8.57;;;6.60;;
9970;SDS011;5026;51.494;11.974;2022-08-19T13:01:32;8.75;;;7.85;;
9970;SDS011;5026;51.494;11.974;2022-08-19T13:03:59;9.57;;;6.45;;
9970;SDS011;5026;51.494;11.974;2022-08-19T13:06:26;8.82;;;6.82;;
9970;SDS011;5026;51.494;11.974;2022-08-19T13:08:53;8.93;;;6.78;;
9970;SDS011;5026;51.494;11.974;2022-08-19T13:11:22;7.32;;;6.32;;
9970;SDS011;5026;51.494;11.974;2022-08-19T13:13:51;8.90;;;6.97;;
9970;SDS011;5026;51.494;11.974;2022-08-19T13:16:20;8.73;;;6.60;;
9970;SDS011;5026;51.494;11.974;2022-08-19T13:18:48;8.75;;;7.18;;
9970;SDS011;5026;51.494;11.974;2022-08-19T13:21:16;10.45;;;7.70;;
9970;SDS011;5026;51.494;11.974;2022-08-19T13:23:45;11.30;;;9.00;;
9970;SDS011;5026;51.494;11.974;2022-08-19T13:26:12;11.48;;;8.65;;
9970;SDS011;5026;51.494;11.974;2022-08-19T13:28:41;15.57;;;9.80;;
9970;SDS011;5026;51.494;11.974;2022-08-19T13:31:27;13.15;;;9.38;;
9970;SDS011;5026;51.494;11.974;2022-08-19T13:34:13;11.98;;;9.70;;
9970;SDS011;5026;51.494;11.974;2022-08-19T13:36:41;16.52;;;12.27;;
9970;SDS011;5026;51.494;11.974;2022-08-19T13:39:08;15.45;;;12.93;;
9970;SDS011;5026;51.494;11.974;2022-08-19T13:41:36;19.20;;;13.40;;
9970;SDS011;5026;51.494;11.974;2022-08-19T13:44:04;19.33;;;14.05;;
9970;SDS011;5026;51.494;11.974;2022-08-19T13:46:32;15.63;;;12.73;;
9970;SDS011;5026;51.494;11.974;2022-08-19T13:48:59;19.55;;;14.80;;
9970;SDS011;5026;51.494;11.974;2022-08-19T13:51:26;16.50;;;13.55;;
9970;SDS011;5026;51.494;11.974;2022-08-19T13:53:53;17.17;;;12.48;;
9970;SDS011;5026;51.494;11.974;2022-08-19T13:56:20;15.65;;;12.93;;
9970;SDS011;5026;51.494;11.974;2022-08-19T13:58:47;16.55;;;14.07;;
9970;SDS011;5026;51.494;11.974;2022-08-19T14:01:18;16.10;;;13.30;;
9970;SDS011;5026;51.494;11.974;2022-08-19T14:03:47;18.42;;;13.05;;
9970;SDS011;5026;51.494;11.974;2022-08-19T14:06:14;18.20;;;13.73;;
9970;SDS011;5026;51.494;11.974;2022-08-19T14:08:41;15.73;;;12.52;;
9970;SDS011;5026;51.494;11.974;2022-08-19T14:11:08;15.85;;;13.35;;
9970;SDS011;5026;51.494;11.974;2022-08-19T14:13:35;20.20;;;14.45;;
9970;SDS011;5026;51.494;11.974;2022-08-19T14:16:06;19.45;;;14.80;;
9970;SDS011;5026;51.494;11.974;2022-08-19T14:18:34;19.65;;;15.32;;
9970;SDS011;5026;51.494;11.974;2022-08-19T14:21:02;17.92;;;14.30;;
9970;SDS011;5026;51.494;11.974;2022-08-19T14:23:29;17.98;;;14.93;;
9970;SDS011;5026;51.494;11.974;2022-08-19T14:26:02;17.60;;;14.32;;
9970;SDS011;5026;51.494;11.974;2022-08-19T14:28:30;15.73;;;14.00;;
9970;SDS011;5026;51.494;11.974;2022-08-19T14:30:57;17.55;;;14.93;;
9970;SDS011;5026;51.494;11.974;2022-08-19T14:33:24;16.75;;;13.77;;
9970;SDS011;5026;51.494;11.974;2022-08-19T14:35:51;17.17;;;14.07;;
9970;SDS011;5026;51.494;11.974;2022-08-19T14:38:19;18.02;;;14.25;;
9970;SDS011;5026;51.494;11.974;2022-08-19T14:40:46;17.42;;;13.45;;
9970;SDS011;5026;51.494;11.974;2022-08-19T14:43:14;17.30;;;14.13;;
9970;SDS011;5026;51.494;11.974;2022-08-19T14:45:42;16.45;;;13.00;;
9970;SDS011;5026;51.494;11.974;2022-08-19T14:48:09;16.92;;;13.13;;
9970;SDS011;5026;51.494;11.974;2022-08-19T14:50:38;17.73;;;13.23;;
9970;SDS011;5026;51.494;11.974;2022-08-19T14:53:05;16.45;;;12.30;;